Aérodrome :
LOGIN :

S'inscrire | Disclaimer

   EN    FR    IT 

 










Légende :    VFR   VFR Marginal   IFR   IFR Intensif   IFR Très Intensif
Visi : 
Plafond : 
>= 8 km
>= 3000ft
5 à 8 km
1000 à 3000 ft
1500m à 5 km
500 à 1000 ft
800 à 1500m
200 à 500 ft
< 800m
< 200 ft
Symboles :   Orages  Brouillard  Fortes neiges  Fortes précipitations  Vent > 20 kt
SIGMETs :   Divers  Orages  Givrage  Turbulence  Onde Orograph.  Cendres Volcan.







- Altitude de l'aérodrome : 274 ft
- Code IATA : PUY


LDPL - Pula

DERNIER METAR :
  • 250900Z 10007KT 070V140 CAVOK 15/06 Q1013 NOSIG

METARs EXPIRÉS :
  • 250830Z 11008KT 080V140 CAVOK 15/05 Q1013 NOSIG
  • 250800Z 11009KT CAVOK 14/05 Q1014 NOSIG
  • 250730Z 10008KT CAVOK 14/04 Q1014 NOSIG
  • 250700Z 10007KT CAVOK 13/04 Q1014 NOSIG
  • 250630Z 09008KT CAVOK 12/05 Q1014 NOSIG

TAF TAF LDPL
Valide du 25 à 06h jusqu'au 26 à 06h UTC


250525Z 2506/2606 08005KT CAVOK TX16/2513Z TN06/2600Z
TEMPO 2517/2522 SHRA SCT050TCU
PROB30
TEMPO 2517/2522 TSRA FEW040CB BKN045
BECMG 2519/2521 05025G40KT
BECMG 2600/2602 05018G28KT
Pas de NOTAMs connus pour ce terrain.



MET'MAP, la Météo Aéronautique d'un coup d'oeil ! - Copyright ORBIFLY Décembre 2007 - Disclaimer

ORBIFLY MET'MAP TEAM :

Programmation & Développement : Alexandra Zaïnal
Conception & Développement : Baudouin d'Aumeries
Co-Programmation & Développement : Marc-Olivier Méhu
Soutien technique & logistique : Manuel Goepfert

Contact : metmap@orbifly.com




SOURCES & CREDITS :

   NOAA